Aérodrome :
LOGIN :

S'inscrire | Disclaimer

   EN    FR    IT 

 










Légende :    VFR   VFR Marginal   IFR   IFR Intensif   IFR Très Intensif
Visi : 
Plafond : 
>= 8 km
>= 3000ft
5 à 8 km
1000 à 3000 ft
1500m à 5 km
500 à 1000 ft
800 à 1500m
200 à 500 ft
< 800m
< 200 ft
Symboles :   Orages  Brouillard  Fortes neiges  Fortes précipitations  Vent > 20 kt
SIGMETs :   Divers  Orages  Givrage  Turbulence  Onde Orograph.  Cendres Volcan.






- Altitude de l'aérodrome : 796 ft
- Code IATA : SYT


LFLN - Saint-Yan

DERNIER METAR :
  • 290830Z AUTO VRB03KT CAVOK 12/06 Q1020 NOSIG

METARs EXPIRÉS :
  • 290800Z AUTO VRB02KT CAVOK 10/06 Q1021 NOSIG
  • 290730Z AUTO 00000KT CAVOK 08/05 Q1020 NOSIG
  • 290700Z AUTO VRB02KT CAVOK 07/04 Q1020 NOSIG
  • 290630Z AUTO VRB02KT CAVOK 06/03 Q1020 NOSIG
  • 290600Z AUTO VRB02KT CAVOK 05/03 Q1020 NOSIG

TAF TAF LFLN
Valide du 29 à 06h jusqu'au 29 à 15h UTC


290500Z 2906/2915 VRB03KT CAVOK



MET'MAP, la Météo Aéronautique d'un coup d'oeil ! - Copyright ORBIFLY Décembre 2007 - Disclaimer

ORBIFLY MET'MAP TEAM :

Programmation & Développement : Alexandra Zaïnal
Sur une idée originale de : Baudouin d'Aumeries
Soutien technique & logistique : Manuel Goepfert
Assistance : Marc-Olivier Méhu




SOURCES & CREDITS :

   NOAA